sensor_id;sensor_type;location;lat;lon;timestamp;pressure;altitude;pressure_sealevel;temperature;humidity
21433;BME280;18592;49.708;10.900;2023-05-19T00:00:32;99301.16;;;16.29;34.88
21433;BME280;18592;49.708;10.900;2023-05-19T00:02:35;99307.19;;;16.26;35.17
21433;BME280;18592;49.708;10.900;2023-05-19T00:04:40;99301.66;;;16.21;35.16
21433;BME280;18592;49.708;10.900;2023-05-19T00:06:49;99304.41;;;16.16;35.36
21433;BME280;18592;49.708;10.900;2023-05-19T00:11:00;99299.41;;;16.08;35.44
21433;BME280;18592;49.708;10.900;2023-05-19T00:13:02;99294.72;;;16.03;35.36
21433;BME280;18592;49.708;10.900;2023-05-19T00:15:05;99295.53;;;15.99;35.42
21433;BME280;18592;49.708;10.900;2023-05-19T00:17:07;99294.94;;;15.97;35.72
21433;BME280;18592;49.708;10.900;2023-05-19T00:19:08;99292.75;;;15.94;35.68
21433;BME280;18592;49.708;10.900;2023-05-19T00:21:14;99290.53;;;15.91;35.51
21433;BME280;18592;49.708;10.900;2023-05-19T00:23:19;99291.34;;;15.86;35.71
21433;BME280;18592;49.708;10.900;2023-05-19T00:25:20;99288.84;;;15.84;35.78
21433;BME280;18592;49.708;10.900;2023-05-19T00:27:22;99294.06;;;15.81;35.71
21433;BME280;18592;49.708;10.900;2023-05-19T00:29:24;99289.09;;;15.78;35.72
21433;BME280;18592;49.708;10.900;2023-05-19T00:31:26;99284.97;;;15.75;35.98
21433;BME280;18592;49.708;10.900;2023-05-19T00:33:28;99283.81;;;15.71;36.00
21433;BME280;18592;49.708;10.900;2023-05-19T00:35:30;99280.50;;;15.69;35.99
21433;BME280;18592;49.708;10.900;2023-05-19T00:37:33;99281.03;;;15.66;36.15
21433;BME280;18592;49.708;10.900;2023-05-19T00:39:34;99276.09;;;15.63;36.18
21433;BME280;18592;49.708;10.900;2023-05-19T00:41:36;99279.09;;;15.62;35.94
21433;BME280;18592;49.708;10.900;2023-05-19T00:43:39;99278.53;;;15.60;36.01
21433;BME280;18592;49.708;10.900;2023-05-19T00:45:40;99283.72;;;15.56;36.35
21433;BME280;18592;49.708;10.900;2023-05-19T00:47:42;99277.69;;;15.54;36.18
21433;BME280;18592;49.708;10.900;2023-05-19T00:49:50;99272.47;;;15.53;36.24
21433;BME280;18592;49.708;10.900;2023-05-19T00:51:54;99281.78;;;15.52;36.42
21433;BME280;18592;49.708;10.900;2023-05-19T00:53:59;99276.00;;;15.48;36.57
21433;BME280;18592;49.708;10.900;2023-05-19T00:56:01;99279.28;;;15.45;36.72
21433;BME280;18592;49.708;10.900;2023-05-19T00:58:04;99271.25;;;15.44;36.55
21433;BME280;18592;49.708;10.900;2023-05-19T01:00:07;99269.88;;;15.41;36.75
21433;BME280;18592;49.708;10.900;2023-05-19T01:02:09;99267.38;;;15.40;36.57
21433;BME280;18592;49.708;10.900;2023-05-19T01:04:11;99255.84;;;15.38;36.59
21433;BME280;18592;49.708;10.900;2023-05-19T01:06:23;99273.69;;;15.35;36.62
21433;BME280;18592;49.708;10.900;2023-05-19T01:08:28;99264.06;;;15.33;36.62
21433;BME280;18592;49.708;10.900;2023-05-19T01:10:32;99262.66;;;15.30;36.83
21433;BME280;18592;49.708;10.900;2023-05-19T01:12:34;99269.25;;;15.29;36.52
21433;BME280;18592;49.708;10.900;2023-05-19T01:14:36;99265.09;;;15.26;36.74
21433;BME280;18592;49.708;10.900;2023-05-19T01:17:06;99262.31;;;15.21;36.98
21433;BME280;18592;49.708;10.900;2023-05-19T01:19:31;99263.66;;;15.19;36.75
21433;BME280;18592;49.708;10.900;2023-05-19T01:21:58;99261.97;;;15.13;36.90
21433;BME280;18592;49.708;10.900;2023-05-19T01:29:40;99250.34;;;15.01;37.13
21433;BME280;18592;49.708;10.900;2023-05-19T01:31:43;99250.88;;;14.98;37.09
21433;BME280;18592;49.708;10.900;2023-05-19T01:33:48;99253.88;;;14.96;37.25
21433;BME280;18592;49.708;10.900;2023-05-19T01:35:55;99249.75;;;14.94;37.00
21433;BME280;18592;49.708;10.900;2023-05-19T01:38:03;99253.84;;;14.91;37.11
21433;BME280;18592;49.708;10.900;2023-05-19T01:40:06;99255.75;;;14.91;37.32
21433;BME280;18592;49.708;10.900;2023-05-19T01:42:09;99249.16;;;14.87;37.42
21433;BME280;18592;49.708;10.900;2023-05-19T01:44:12;99249.09;;;14.82;37.54
21433;BME280;18592;49.708;10.900;2023-05-19T01:46:14;99251.28;;;14.80;37.64
21433;BME280;18592;49.708;10.900;2023-05-19T01:48:17;99250.97;;;14.76;37.69
21433;BME280;18592;49.708;10.900;2023-05-19T01:50:20;99255.91;;;14.74;37.65
21433;BME280;18592;49.708;10.900;2023-05-19T01:52:23;99247.91;;;14.73;37.69
21433;BME280;18592;49.708;10.900;2023-05-19T01:54:24;99249.25;;;14.70;37.78
21433;BME280;18592;49.708;10.900;2023-05-19T01:59:15;99252.50;;;14.62;38.61
21433;BME280;18592;49.708;10.900;2023-05-19T02:01:33;99247.53;;;14.59;38.37
21433;BME280;18592;49.708;10.900;2023-05-19T02:08:40;99246.59;;;14.48;37.96
21433;BME280;18592;49.708;10.900;2023-05-19T02:10:49;99247.94;;;14.46;38.23
21433;BME280;18592;49.708;10.900;2023-05-19T02:12:52;99246.53;;;14.43;38.11
21433;BME280;18592;49.708;10.900;2023-05-19T02:15:22;99242.13;;;14.42;38.26
21433;BME280;18592;49.708;10.900;2023-05-19T02:17:26;99239.66;;;14.41;38.05
21433;BME280;18592;49.708;10.900;2023-05-19T02:19:32;99241.00;;;14.38;38.16
21433;BME280;18592;49.708;10.900;2023-05-19T02:21:34;99243.19;;;14.36;38.10
21433;BME280;18592;49.708;10.900;2023-05-19T02:23:35;99247.00;;;14.35;38.12
21433;BME280;18592;49.708;10.900;2023-05-19T02:25:37;99238.22;;;14.33;38.14
21433;BME280;18592;49.708;10.900;2023-05-19T02:27:40;99243.69;;;14.33;38.14
21433;BME280;18592;49.708;10.900;2023-05-19T02:29:41;99231.31;;;14.31;38.25
21433;BME280;18592;49.708;10.900;2023-05-19T02:31:44;99237.06;;;14.29;38.33
21433;BME280;18592;49.708;10.900;2023-05-19T02:33:45;99239.19;;;14.27;38.40
21433;BME280;18592;49.708;10.900;2023-05-19T02:35:47;99237.56;;;14.26;38.48
21433;BME280;18592;49.708;10.900;2023-05-19T02:37:48;99238.91;;;14.24;38.44
21433;BME280;18592;49.708;10.900;2023-05-19T02:39:50;99238.06;;;14.23;38.74
21433;BME280;18592;49.708;10.900;2023-05-19T02:41:52;99243.00;;;14.21;38.47
21433;BME280;18592;49.708;10.900;2023-05-19T02:43:54;99237.75;;;14.20;38.66
21433;BME280;18592;49.708;10.900;2023-05-19T02:45:56;99229.53;;;14.20;38.61
21433;BME280;18592;49.708;10.900;2023-05-19T02:48:00;99226.78;;;14.20;38.54
21433;BME280;18592;49.708;10.900;2023-05-19T02:50:01;99221.81;;;14.17;38.65
21433;BME280;18592;49.708;10.900;2023-05-19T02:52:04;99224.56;;;14.17;38.60
21433;BME280;18592;49.708;10.900;2023-05-19T02:54:07;99221.81;;;14.17;38.63
21433;BME280;18592;49.708;10.900;2023-05-19T02:56:08;99221.00;;;14.16;38.75
21433;BME280;18592;49.708;10.900;2023-05-19T02:58:11;99221.25;;;14.15;38.47
21433;BME280;18592;49.708;10.900;2023-05-19T03:00:13;99218.50;;;14.15;38.40
21433;BME280;18592;49.708;10.900;2023-05-19T03:02:16;99219.00;;;14.12;38.85
21433;BME280;18592;49.708;10.900;2023-05-19T03:04:18;99213.53;;;14.12;38.56
21433;BME280;18592;49.708;10.900;2023-05-19T03:06:23;99227.78;;;14.09;38.81
21433;BME280;18592;49.708;10.900;2023-05-19T03:08:26;99224.19;;;14.08;39.12
21433;BME280;18592;49.708;10.900;2023-05-19T03:10:31;99225.03;;;14.09;38.90
21433;BME280;18592;49.708;10.900;2023-05-19T03:12:33;99221.69;;;14.07;39.10
21433;BME280;18592;49.708;10.900;2023-05-19T03:14:35;99217.31;;;14.06;39.35
21433;BME280;18592;49.708;10.900;2023-05-19T03:16:38;99222.53;;;14.07;39.23
21433;BME280;18592;49.708;10.900;2023-05-19T03:18:42;99218.16;;;14.06;39.25
21433;BME280;18592;49.708;10.900;2023-05-19T03:20:44;99217.03;;;14.07;38.79
21433;BME280;18592;49.708;10.900;2023-05-19T03:22:46;99221.69;;;14.07;38.91
21433;BME280;18592;49.708;10.900;2023-05-19T03:24:50;99218.38;;;14.05;39.06
21433;BME280;18592;49.708;10.900;2023-05-19T03:26:54;99221.13;;;14.05;39.04
21433;BME280;18592;49.708;10.900;2023-05-19T03:28:56;99221.97;;;14.05;39.01
21433;BME280;18592;49.708;10.900;2023-05-19T03:30:58;99223.03;;;14.04;38.94
21433;BME280;18592;49.708;10.900;2023-05-19T03:33:04;99224.97;;;14.04;39.21
21433;BME280;18592;49.708;10.900;2023-05-19T03:35:06;99229.63;;;14.03;39.09
21433;BME280;18592;49.708;10.900;2023-05-19T03:37:10;99224.13;;;14.03;39.30
21433;BME280;18592;49.708;10.900;2023-05-19T03:39:15;99230.69;;;14.02;39.40
21433;BME280;18592;49.708;10.900;2023-05-19T03:41:27;99226.06;;;14.02;39.25
21433;BME280;18592;49.708;10.900;2023-05-19T03:43:29;99237.28;;;14.01;39.42
21433;BME280;18592;49.708;10.900;2023-05-19T03:45:35;99217.81;;;14.02;39.36
21433;BME280;18592;49.708;10.900;2023-05-19T03:47:51;99229.06;;;14.01;39.33
21433;BME280;18592;49.708;10.900;2023-05-19T03:50:13;99239.19;;;14.00;39.28
21433;BME280;18592;49.708;10.900;2023-05-19T03:52:25;99236.69;;;13.99;39.38
21433;BME280;18592;49.708;10.900;2023-05-19T03:54:51;99245.50;;;14.01;39.07
21433;BME280;18592;49.708;10.900;2023-05-19T03:56:53;99241.66;;;14.02;39.27
21433;BME280;18592;49.708;10.900;2023-05-19T03:58:55;99247.16;;;14.02;39.33
21433;BME280;18592;49.708;10.900;2023-05-19T04:00:56;99246.31;;;14.01;39.48
21433;BME280;18592;49.708;10.900;2023-05-19T04:02:58;99242.50;;;14.02;39.47
21433;BME280;18592;49.708;10.900;2023-05-19T04:05:01;99251.56;;;14.03;39.13
21433;BME280;18592;49.708;10.900;2023-05-19T04:07:07;99243.34;;;14.03;39.23
21433;BME280;18592;49.708;10.900;2023-05-19T04:09:15;99241.16;;;14.05;39.31
21433;BME280;18592;49.708;10.900;2023-05-19T04:11:19;99242.00;;;14.06;39.17
21433;BME280;18592;49.708;10.900;2023-05-19T04:13:32;99242.00;;;14.06;39.51
21433;BME280;18592;49.708;10.900;2023-05-19T04:15:34;99244.97;;;14.04;39.76
21433;BME280;18592;49.708;10.900;2023-05-19T04:17:36;99242.81;;;14.06;39.88
21433;BME280;18592;49.708;10.900;2023-05-19T04:19:38;99244.47;;;14.07;39.52
21433;BME280;18592;49.708;10.900;2023-05-19T04:21:42;99246.13;;;14.08;39.72
21433;BME280;18592;49.708;10.900;2023-05-19T04:23:44;99246.13;;;14.08;40.04
21433;BME280;18592;49.708;10.900;2023-05-19T04:25:46;99246.13;;;14.08;39.93
21433;BME280;18592;49.708;10.900;2023-05-19T04:27:54;99249.44;;;14.10;40.10
21433;BME280;18592;49.708;10.900;2023-05-19T04:29:58;99242.28;;;14.09;40.01
21433;BME280;18592;49.708;10.900;2023-05-19T04:32:00;99245.63;;;14.11;40.45
21433;BME280;18592;49.708;10.900;2023-05-19T04:34:01;99242.06;;;14.11;40.59
21433;BME280;18592;49.708;10.900;2023-05-19T04:36:07;99250.00;;;14.12;40.37
21433;BME280;18592;49.708;10.900;2023-05-19T04:38:12;99256.31;;;14.13;40.41
21433;BME280;18592;49.708;10.900;2023-05-19T04:40:20;99248.41;;;14.16;40.29
21433;BME280;18592;49.708;10.900;2023-05-19T04:42:25;99251.72;;;14.18;40.28
21433;BME280;18592;49.708;10.900;2023-05-19T04:44:32;99249.56;;;14.20;40.28
21433;BME280;18592;49.708;10.900;2023-05-19T04:46:34;99245.47;;;14.23;40.34
21433;BME280;18592;49.708;10.900;2023-05-19T04:48:36;99251.50;;;14.25;40.40
21433;BME280;18592;49.708;10.900;2023-05-19T04:50:38;99247.38;;;14.22;40.65
21433;BME280;18592;49.708;10.900;2023-05-19T04:52:43;99254.84;;;14.27;40.45
21433;BME280;18592;49.708;10.900;2023-05-19T04:54:49;99255.16;;;14.30;40.55
21433;BME280;18592;49.708;10.900;2023-05-19T04:56:54;99255.66;;;14.27;41.23
21433;BME280;18592;49.708;10.900;2023-05-19T04:58:58;99258.47;;;14.32;40.63
21433;BME280;18592;49.708;10.900;2023-05-19T05:01:01;99254.16;;;14.36;41.10
21433;BME280;18592;49.708;10.900;2023-05-19T05:03:05;99252.25;;;14.37;41.05
21433;BME280;18592;49.708;10.900;2023-05-19T05:05:08;99248.16;;;14.39;40.94
21433;BME280;18592;49.708;10.900;2023-05-19T05:07:11;99252.59;;;14.45;40.93
21433;BME280;18592;49.708;10.900;2023-05-19T05:09:17;99252.34;;;14.47;40.85
21433;BME280;18592;49.708;10.900;2023-05-19T05:11:19;99255.09;;;14.47;42.08
21433;BME280;18592;49.708;10.900;2023-05-19T05:13:22;99249.34;;;14.48;41.70
21433;BME280;18592;49.708;10.900;2023-05-19T05:15:27;99247.72;;;14.52;41.44
21433;BME280;18592;49.708;10.900;2023-05-19T05:17:33;99245.84;;;14.58;41.07
21433;BME280;18592;49.708;10.900;2023-05-19T05:19:37;99244.50;;;14.60;41.52
21433;BME280;18592;49.708;10.900;2023-05-19T05:21:40;99239.34;;;14.64;41.23
21433;BME280;18592;49.708;10.900;2023-05-19T05:23:45;99247.31;;;14.66;42.20
21433;BME280;18592;49.708;10.900;2023-05-19T05:25:48;99243.22;;;14.68;41.52
21433;BME280;18592;49.708;10.900;2023-05-19T05:27:53;99236.94;;;14.73;41.53
21433;BME280;18592;49.708;10.900;2023-05-19T05:30:01;99237.25;;;14.76;41.63
21433;BME280;18592;49.708;10.900;2023-05-19T05:32:03;99231.25;;;14.79;42.00
21433;BME280;18592;49.708;10.900;2023-05-19T05:34:05;99231.53;;;14.83;42.29
21433;BME280;18592;49.708;10.900;2023-05-19T05:36:07;99232.69;;;14.87;41.91
21433;BME280;18592;49.708;10.900;2023-05-19T05:38:16;99233.56;;;14.92;41.81
21433;BME280;18592;49.708;10.900;2023-05-19T05:40:18;99230.25;;;14.95;41.99
21433;BME280;18592;49.708;10.900;2023-05-19T05:42:21;99237.72;;;15.00;41.88
21433;BME280;18592;49.708;10.900;2023-05-19T05:44:23;99235.25;;;15.03;42.74
21433;BME280;18592;49.708;10.900;2023-05-19T05:46:24;99230.91;;;15.07;42.31
21433;BME280;18592;49.708;10.900;2023-05-19T05:48:27;99237.53;;;15.11;42.43
21433;BME280;18592;49.708;10.900;2023-05-19T05:50:32;99240.59;;;15.15;42.39
21433;BME280;18592;49.708;10.900;2023-05-19T05:52:45;99229.63;;;15.20;42.67
21433;BME280;18592;49.708;10.900;2023-05-19T05:54:51;99234.31;;;15.24;42.52
21433;BME280;18592;49.708;10.900;2023-05-19T05:56:58;99230.78;;;15.29;42.30
21433;BME280;18592;49.708;10.900;2023-05-19T05:59:00;99228.06;;;15.34;42.37
21433;BME280;18592;49.708;10.900;2023-05-19T06:01:03;99242.38;;;15.41;42.60
21433;BME280;18592;49.708;10.900;2023-05-19T06:03:17;99244.13;;;15.47;43.21
21433;BME280;18592;49.708;10.900;2023-05-19T06:05:28;99235.38;;;15.55;42.39
21433;BME280;18592;49.708;10.900;2023-05-19T06:07:30;99229.63;;;15.62;42.36
21433;BME280;18592;49.708;10.900;2023-05-19T06:09:35;99228.56;;;15.68;41.96
21433;BME280;18592;49.708;10.900;2023-05-19T06:11:39;99230.50;;;15.72;41.99
21433;BME280;18592;49.708;10.900;2023-05-19T06:13:41;99229.44;;;15.78;42.02
21433;BME280;18592;49.708;10.900;2023-05-19T06:16:12;99230.28;;;15.84;41.79
21433;BME280;18592;49.708;10.900;2023-05-19T06:18:19;99231.13;;;15.89;42.15
21433;BME280;18592;49.708;10.900;2023-05-19T06:20:22;99242.16;;;15.95;41.76
21433;BME280;18592;49.708;10.900;2023-05-19T06:22:32;99228.41;;;16.00;41.52
21433;BME280;18592;49.708;10.900;2023-05-19T06:24:36;99230.09;;;16.06;41.65
21433;BME280;18592;49.708;10.900;2023-05-19T06:26:44;99231.19;;;16.10;41.80
21433;BME280;18592;49.708;10.900;2023-05-19T06:28:46;99235.63;;;16.16;41.50
21433;BME280;18592;49.708;10.900;2023-05-19T06:30:50;99231.22;;;16.20;41.63
21433;BME280;18592;49.708;10.900;2023-05-19T06:33:02;99234.53;;;16.22;41.51
21433;BME280;18592;49.708;10.900;2023-05-19T06:35:04;99230.16;;;16.26;41.45
21433;BME280;18592;49.708;10.900;2023-05-19T06:37:08;99238.41;;;16.31;41.39
21433;BME280;18592;49.708;10.900;2023-05-19T06:39:18;99240.34;;;16.35;41.22
21433;BME280;18592;49.708;10.900;2023-05-19T06:41:20;99225.78;;;16.40;41.27
21433;BME280;18592;49.708;10.900;2023-05-19T06:43:24;99236.25;;;16.43;41.14
21433;BME280;18592;49.708;10.900;2023-05-19T06:45:32;99232.66;;;16.47;41.27
21433;BME280;18592;49.708;10.900;2023-05-19T06:47:39;99235.72;;;16.51;41.21
21433;BME280;18592;49.708;10.900;2023-05-19T06:49:45;99236.28;;;16.58;41.27
21433;BME280;18592;49.708;10.900;2023-05-19T06:51:51;99238.22;;;16.63;41.12
21433;BME280;18592;49.708;10.900;2023-05-19T06:53:56;99229.97;;;16.68;41.22
21433;BME280;18592;49.708;10.900;2023-05-19T06:55:58;99233.56;;;16.73;41.16
21433;BME280;18592;49.708;10.900;2023-05-19T06:58:07;99233.00;;;16.81;41.42
21433;BME280;18592;49.708;10.900;2023-05-19T07:00:13;99233.00;;;16.91;41.04
21433;BME280;18592;49.708;10.900;2023-05-19T07:02:24;99231.63;;;16.99;41.10
21433;BME280;18592;49.708;10.900;2023-05-19T07:04:29;99228.59;;;17.05;40.93
21433;BME280;18592;49.708;10.900;2023-05-19T07:06:46;99227.50;;;17.11;41.15
21433;BME280;18592;49.708;10.900;2023-05-19T07:08:54;99225.56;;;17.22;41.00
21433;BME280;18592;49.708;10.900;2023-05-19T07:10:58;99214.78;;;17.31;40.99
21433;BME280;18592;49.708;10.900;2023-05-19T07:13:02;99218.91;;;17.38;40.91
21433;BME280;18592;49.708;10.900;2023-05-19T07:15:07;99213.13;;;17.45;40.96
21433;BME280;18592;49.708;10.900;2023-05-19T07:17:09;99217.25;;;17.52;40.84
21433;BME280;18592;49.708;10.900;2023-05-19T07:19:17;99213.09;;;17.60;40.75
21433;BME280;18592;49.708;10.900;2023-05-19T07:21:21;99219.97;;;17.67;40.72
21433;BME280;18592;49.708;10.900;2023-05-19T07:23:24;99221.31;;;17.75;40.77
21433;BME280;18592;49.708;10.900;2023-05-19T07:25:25;99207.50;;;17.80;40.65
21433;BME280;18592;49.708;10.900;2023-05-19T07:27:32;99212.72;;;17.87;40.55
21433;BME280;18592;49.708;10.900;2023-05-19T07:29:36;99204.41;;;17.92;40.60
21433;BME280;18592;49.708;10.900;2023-05-19T07:31:38;99212.09;;;18.00;40.47
21433;BME280;18592;49.708;10.900;2023-05-19T07:33:39;99207.09;;;18.07;40.35
21433;BME280;18592;49.708;10.900;2023-05-19T07:35:41;99197.69;;;18.13;40.41
21433;BME280;18592;49.708;10.900;2023-05-19T07:37:48;99199.03;;;18.20;40.42
21433;BME280;18592;49.708;10.900;2023-05-19T07:39:52;99195.94;;;18.27;40.52
21433;BME280;18592;49.708;10.900;2023-05-19T07:41:54;99195.06;;;18.36;40.53
21433;BME280;18592;49.708;10.900;2023-05-19T07:43:58;99192.53;;;18.45;40.54
21433;BME280;18592;49.708;10.900;2023-05-19T07:46:00;99193.59;;;18.54;40.43
21433;BME280;18592;49.708;10.900;2023-05-19T07:48:05;99197.97;;;18.60;40.38
21433;BME280;18592;49.708;10.900;2023-05-19T07:50:10;99194.06;;;18.66;40.19
21433;BME280;18592;49.708;10.900;2023-05-19T07:52:12;99192.63;;;18.74;40.48
21433;BME280;18592;49.708;10.900;2023-05-19T07:54:14;99193.41;;;18.79;40.48
21433;BME280;18592;49.708;10.900;2023-05-19T07:56:15;99195.00;;;18.85;40.31
21433;BME280;18592;49.708;10.900;2023-05-19T07:58:17;99189.16;;;18.92;40.12
21433;BME280;18592;49.708;10.900;2023-05-19T08:00:21;99187.97;;;18.98;40.31
21433;BME280;18592;49.708;10.900;2023-05-19T08:02:23;99176.59;;;19.05;40.00
21433;BME280;18592;49.708;10.900;2023-05-19T08:04:24;99174.00;;;19.13;40.15
21433;BME280;18592;49.708;10.900;2023-05-19T08:06:26;99180.56;;;19.22;40.19
21433;BME280;18592;49.708;10.900;2023-05-19T08:08:30;99176.34;;;19.30;40.43
21433;BME280;18592;49.708;10.900;2023-05-19T08:10:33;99168.81;;;19.40;40.38
21433;BME280;18592;49.708;10.900;2023-05-19T08:12:39;99164.78;;;19.51;40.81
21433;BME280;18592;49.708;10.900;2023-05-19T08:14:41;99159.66;;;19.63;40.57
21433;BME280;18592;49.708;10.900;2023-05-19T08:16:46;99160.59;;;19.78;40.94
21433;BME280;18592;49.708;10.900;2023-05-19T08:18:47;99165.94;;;19.93;41.11
21433;BME280;18592;49.708;10.900;2023-05-19T08:20:52;99156.00;;;20.10;40.98
21433;BME280;18592;49.708;10.900;2023-05-19T08:22:54;99158.28;;;20.27;41.15
21433;BME280;18592;49.708;10.900;2023-05-19T08:25:00;99163.59;;;20.42;41.21
21433;BME280;18592;49.708;10.900;2023-05-19T08:27:04;99162.81;;;20.55;41.00
21433;BME280;18592;49.708;10.900;2023-05-19T08:29:07;99156.00;;;20.66;40.71
21433;BME280;18592;49.708;10.900;2023-05-19T08:31:08;99155.84;;;20.76;40.49
21433;BME280;18592;49.708;10.900;2023-05-19T08:33:12;99150.72;;;20.83;40.33
21433;BME280;18592;49.708;10.900;2023-05-19T08:35:13;99151.66;;;20.92;40.44
21433;BME280;18592;49.708;10.900;2023-05-19T08:37:15;99152.91;;;21.00;39.95
21433;BME280;18592;49.708;10.900;2023-05-19T08:39:17;99151.41;;;21.08;40.29
21433;BME280;18592;49.708;10.900;2023-05-19T08:41:24;99137.19;;;21.14;39.99
21433;BME280;18592;49.708;10.900;2023-05-19T08:43:31;99143.44;;;21.20;39.52
21433;BME280;18592;49.708;10.900;2023-05-19T08:45:42;99141.38;;;21.25;39.27
21433;BME280;18592;49.708;10.900;2023-05-19T08:47:46;99140.78;;;21.28;39.48
21433;BME280;18592;49.708;10.900;2023-05-19T08:49:52;99131.25;;;21.34;39.25
21433;BME280;18592;49.708;10.900;2023-05-19T08:52:12;99128.66;;;21.38;38.83
21433;BME280;18592;49.708;10.900;2023-05-19T08:54:15;99125.78;;;21.43;38.90
21433;BME280;18592;49.708;10.900;2023-05-19T08:56:22;99126.81;;;21.47;38.55
21433;BME280;18592;49.708;10.900;2023-05-19T08:58:25;99131.44;;;21.51;38.78
21433;BME280;18592;49.708;10.900;2023-05-19T09:00:29;99126.91;;;21.69;38.50
21433;BME280;18592;49.708;10.900;2023-05-19T09:02:31;99121.56;;;21.73;38.57
21433;BME280;18592;49.708;10.900;2023-05-19T09:04:37;99119.59;;;21.73;38.24
21433;BME280;18592;49.708;10.900;2023-05-19T09:06:39;99118.97;;;21.76;38.39
21433;BME280;18592;49.708;10.900;2023-05-19T09:08:42;99108.91;;;21.80;38.36
21433;BME280;18592;49.708;10.900;2023-05-19T09:10:47;99122.47;;;21.82;38.39
21433;BME280;18592;49.708;10.900;2023-05-19T09:12:49;99115.47;;;21.84;38.47
21433;BME280;18592;49.708;10.900;2023-05-19T09:14:54;99116.50;;;21.88;38.25
21433;BME280;18592;49.708;10.900;2023-05-19T09:16:57;99116.50;;;21.88;37.87
21433;BME280;18592;49.708;10.900;2023-05-19T09:18:58;99105.13;;;21.90;37.78
21433;BME280;18592;49.708;10.900;2023-05-19T09:21:01;99112.84;;;21.93;37.98
21433;BME280;18592;49.708;10.900;2023-05-19T09:23:04;99105.34;;;21.93;38.00
21433;BME280;18592;49.708;10.900;2023-05-19T09:25:16;99103.69;;;21.92;37.34
21433;BME280;18592;49.708;10.900;2023-05-19T09:27:20;99103.06;;;21.95;37.56
21433;BME280;18592;49.708;10.900;2023-05-19T09:29:27;99101.78;;;22.01;37.59
21433;BME280;18592;49.708;10.900;2023-05-19T09:31:31;99106.22;;;22.02;37.80
21433;BME280;18592;49.708;10.900;2023-05-19T09:33:40;99099.56;;;22.03;37.68
21433;BME280;18592;49.708;10.900;2023-05-19T09:35:46;99103.66;;;22.06;37.66
21433;BME280;18592;49.708;10.900;2023-05-19T09:37:48;99102.00;;;22.05;37.29
21433;BME280;18592;49.708;10.900;2023-05-19T09:39:55;99103.34;;;22.07;37.41
21433;BME280;18592;49.708;10.900;2023-05-19T09:41:57;99098.59;;;22.08;37.32
21433;BME280;18592;49.708;10.900;2023-05-19T09:43:59;99102.81;;;22.05;37.38
21433;BME280;18592;49.708;10.900;2023-05-19T09:46:07;99098.91;;;22.06;36.93
21433;BME280;18592;49.708;10.900;2023-05-19T09:48:13;99104.16;;;22.08;36.88
21433;BME280;18592;49.708;10.900;2023-05-19T09:50:16;99103.34;;;22.07;36.76
21433;BME280;18592;49.708;10.900;2023-05-19T09:52:19;99095.50;;;22.09;37.17
21433;BME280;18592;49.708;10.900;2023-05-19T09:54:22;99097.66;;;22.12;36.85
21433;BME280;18592;49.708;10.900;2023-05-19T09:56:24;99098.16;;;22.14;37.15
21433;BME280;18592;49.708;10.900;2023-05-19T09:58:32;99094.25;;;22.16;37.06
21433;BME280;18592;49.708;10.900;2023-05-19T10:00:37;99098.38;;;22.18;36.93
21433;BME280;18592;49.708;10.900;2023-05-19T10:02:40;99088.09;;;22.19;36.82
21433;BME280;18592;49.708;10.900;2023-05-19T10:04:45;99093.81;;;22.22;37.05
21433;BME280;18592;49.708;10.900;2023-05-19T10:06:49;99087.63;;;22.25;37.03
21433;BME280;18592;49.708;10.900;2023-05-19T10:08:54;99092.75;;;22.32;37.07
21433;BME280;18592;49.708;10.900;2023-05-19T10:10:56;99086.88;;;22.33;36.38
21433;BME280;18592;49.708;10.900;2023-05-19T10:12:58;99086.25;;;22.36;36.50
21433;BME280;18592;49.708;10.900;2023-05-19T10:15:01;99086.44;;;22.40;36.52
21433;BME280;18592;49.708;10.900;2023-05-19T10:17:06;99088.59;;;22.43;36.40
21433;BME280;18592;49.708;10.900;2023-05-19T10:19:09;99080.13;;;22.48;36.75
21433;BME280;18592;49.708;10.900;2023-05-19T10:21:12;99076.53;;;22.47;36.59
21433;BME280;18592;49.708;10.900;2023-05-19T10:23:14;99080.97;;;22.48;36.58
21433;BME280;18592;49.708;10.900;2023-05-19T10:25:16;99071.47;;;22.49;36.54
21433;BME280;18592;49.708;10.900;2023-05-19T10:27:24;99071.47;;;22.49;36.38
21433;BME280;18592;49.708;10.900;2023-05-19T10:29:27;99066.72;;;22.50;36.02
21433;BME280;18592;49.708;10.900;2023-05-19T10:31:30;99073.94;;;22.51;35.98
21433;BME280;18592;49.708;10.900;2023-05-19T10:33:45;99070.66;;;22.49;36.09
21433;BME280;18592;49.708;10.900;2023-05-19T10:36:14;99062.34;;;22.49;35.81
21433;BME280;18592;49.708;10.900;2023-05-19T10:38:36;99062.34;;;22.49;35.93
21433;BME280;18592;49.708;10.900;2023-05-19T10:41:05;99055.63;;;22.50;36.17
21433;BME280;18592;49.708;10.900;2023-05-19T10:43:26;99054.16;;;22.52;35.68
21433;BME280;18592;49.708;10.900;2023-05-19T10:45:35;99047.47;;;22.53;35.62
21433;BME280;18592;49.708;10.900;2023-05-19T10:47:43;99049.09;;;22.54;35.83
21433;BME280;18592;49.708;10.900;2023-05-19T10:49:44;99043.25;;;22.56;35.59
21433;BME280;18592;49.708;10.900;2023-05-19T10:51:47;99042.91;;;22.57;35.66
21433;BME280;18592;49.708;10.900;2023-05-19T10:53:49;99035.41;;;22.58;35.84
21433;BME280;18592;49.708;10.900;2023-05-19T10:55:52;99040.34;;;22.61;36.03
21433;BME280;18592;49.708;10.900;2023-05-19T10:57:54;99040.53;;;22.64;36.09
21433;BME280;18592;49.708;10.900;2023-05-19T11:00:02;99036.81;;;22.69;35.75
21433;BME280;18592;49.708;10.900;2023-05-19T11:04:45;99029.00;;;22.80;35.88
21433;BME280;18592;49.708;10.900;2023-05-19T11:06:52;99042.78;;;22.85;36.19
21433;BME280;18592;49.708;10.900;2023-05-19T11:11:14;99036.28;;;22.98;35.86
21433;BME280;18592;49.708;10.900;2023-05-19T11:13:19;99033.06;;;23.04;35.76